Stations météo

Publicité
Leuchtturm Kiel, Allemagne (10044): Température de l'air & dewpoint: 10.01.2018 20:00:00 - 16.01.2018 20:00:00 (CET)Leuchtturm Kiel, Allemagne (10044): Vitesse du vent & gusts: 10.01.2018 20:00:00 - 16.01.2018 20:00:00 (CET)Leuchtturm Kiel, Allemagne (10044): Direction du vent: 10.01.2018 20:00:00 - 16.01.2018 20:00:00 (CET)Leuchtturm Kiel, Allemagne (10044): reduced air pressure: 10.01.2018 20:00:00 - 16.01.2018 20:00:00 (CET)Leuchtturm Kiel, Allemagne (10044): Ensoleillement: 10.01.2018 20:00:00 - 16.01.2018 20:00:00 (CET)
Date & Time tt [°C] td [°C] ff [km/h] ff [knt] fx [km/h] fx [knt] dd ppp [hPa] sd [min]
16.01.2018 20:00:00 1,8 0,8 36 19 47 25 SSW 986,3 0
16.01.2018 19:00:00 1,5 0,6 36 19 - - SW 985,9 0
16.01.2018 18:00:00 2,0 1,1 40 21 50 27 SW 985,8 0
16.01.2018 17:00:00 2,4 1,0 36 19 47 25 SW 985,6 0
16.01.2018 16:00:00 3,1 1,1 29 16 - - SW 985,0 0
16.01.2018 15:00:00 3,7 1,8 32 18 - - SW 984,5 18
16.01.2018 14:00:00 3,6 1,7 36 19 - - SW 984,4 18
16.01.2018 13:00:00 3,4 1,7 32 18 - - SW 984,6 0
16.01.2018 12:00:00 3,7 1,8 36 19 47 25 SW 984,9 0
16.01.2018 11:00:00 3,8 2,1 32 18 47 25 SSW 985,0 0
16.01.2018 10:00:00 4,0 2,1 36 19 - - SSW 984,9 0
16.01.2018 09:00:00 3,9 2,6 32 18 - - SSW 984,8 0
16.01.2018 08:00:00 2,6 1,7 29 16 65 35 WSW 984,7 0
16.01.2018 07:00:00 3,8 2,0 36 19 - - SW 984,3 0
16.01.2018 06:00:00 4,1 1,8 36 19 54 29 SW 984,4 0
16.01.2018 05:00:00 4,9 2,3 43 23 65 35 SW 983,9 0
16.01.2018 04:00:00 5,3 4,0 47 25 - - SW 984,2 0
16.01.2018 03:00:00 3,6 3,0 50 27 72 39 S 983,6 0
16.01.2018 02:00:00 2,8 1,7 61 33 79 43 S 983,7 0
16.01.2018 01:00:00 2,7 1,3 65 35 - - SSE 985,4 0
16.01.2018 00:00:00 3,0 1,4 61 33 76 41 SSE 986,9 0
15.01.2018 23:00:00 3,1 1,5 58 31 68 37 SSE 988,9 0
15.01.2018 22:00:00 3,2 1,3 61 33 - - SSE 990,7 0
15.01.2018 21:00:00 3,1 1,1 61 33 76 41 SSE 992,5 0
15.01.2018 20:00:00 2,7 0,9 58 31 72 39 SSE 994,5 0
15.01.2018 19:00:00 2,9 0,7 61 33 - - SSE 996,3 0
15.01.2018 18:00:00 2,8 0,2 54 29 68 37 SSE 998,2 0
15.01.2018 17:00:00 2,7 -0,1 58 31 72 39 SSE 999,5 0
15.01.2018 16:00:00 2,5 -0,8 54 29 - - SSE 1001,1 0
15.01.2018 15:00:00 2,1 -1,0 47 25 61 33 S 1002,8 0
15.01.2018 14:00:00 1,7 -1,6 50 27 61 33 SSE 1004,5 0
15.01.2018 13:00:00 1,3 -1,8 47 25 - - SSE 1006,4 0
15.01.2018 12:00:00 0,8 -2,1 50 27 61 33 SSE 1008,1 0
15.01.2018 11:00:00 0,3 -2,9 50 27 65 35 SSE 1009,8 0
15.01.2018 10:00:00 0,0 -3,1 50 27 - - SSE 1010,9 30
15.01.2018 09:00:00 0,0 -2,9 54 29 61 33 SSE 1012,0 0
15.01.2018 08:00:00 -0,5 -3,4 47 25 61 33 SSE 1013,2 0
15.01.2018 07:00:00 -0,7 -3,0 47 25 - - SSE 1014,5 0
15.01.2018 06:00:00 -1,0 -3,6 43 23 54 29 SSE 1015,6 0
15.01.2018 05:00:00 -1,1 -3,6 43 23 50 27 SSE 1017,0 0
15.01.2018 04:00:00 -1,3 -3,6 43 23 - - SSE 1018,3 0
15.01.2018 03:00:00 -1,4 -3,8 47 25 58 31 SSE 1019,1 0
15.01.2018 02:00:00 -1,2 -3,4 47 25 58 31 SSE 1020,1 0
15.01.2018 01:00:00 -1,3 -3,9 50 27 - - SSE 1021,2 0
15.01.2018 00:00:00 -1,3 -4,0 43 23 54 29 SSE 1022,5 0
14.01.2018 23:00:00 -1,3 -4,0 40 21 54 29 SSE 1023,5 0
14.01.2018 22:00:00 -1,4 -4,3 40 21 - - SSE 1024,4 0
14.01.2018 21:00:00 -1,3 -4,1 36 19 54 29 SSE 1024,8 0
14.01.2018 20:00:00 -1,1 -3,8 43 23 61 33 SE 1025,0 0
14.01.2018 19:00:00 -0,5 -3,3 50 27 - - SE 1024,8 0
14.01.2018 18:00:00 0,2 -2,9 50 27 58 31 SE 1025,6 0
14.01.2018 17:00:00 0,4 -2,9 47 25 54 29 ESE 1025,9 0
14.01.2018 16:00:00 0,5 -2,8 43 23 - - ESE 1026,3 60
14.01.2018 15:00:00 0,4 -3,4 40 21 47 25 SE 1026,7 60
14.01.2018 14:00:00 0,2 -3,7 36 19 47 25 SE 1027,2 60
14.01.2018 13:00:00 0,0 -4,1 36 19 - - SE 1027,7 60
14.01.2018 12:00:00 0,2 -3,7 43 23 50 27 SE 1028,5 54
14.01.2018 11:00:00 0,2 -3,7 43 23 50 27 SE 1028,7 24
14.01.2018 10:00:00 0,3 -4,1 40 21 - - SE 1028,9 0
14.01.2018 09:00:00 0,6 -4,5 36 19 47 25 SE 1028,7 0
14.01.2018 08:00:00 0,4 -5,1 40 21 54 29 SE 1028,9 0
14.01.2018 07:00:00 0,2 -5,2 40 21 - - SE 1029,1 0
14.01.2018 06:00:00 0,1 -5,4 36 19 50 27 SE 1029,2 0
14.01.2018 05:00:00 0,2 -4,5 36 19 54 29 SE 1029,5 0
14.01.2018 04:00:00 0,3 -4,3 32 18 - - SE 1029,9 0
14.01.2018 03:00:00 0,2 -4,6 36 19 54 29 SE 1030,0 0
14.01.2018 02:00:00 0,1 -5,1 40 21 50 27 SE 1030,3 0
14.01.2018 01:00:00 0,0 -4,9 36 19 - - SE 1030,6 0
14.01.2018 00:00:00 -0,1 -5,2 32 18 50 27 SE 1031,0 0
13.01.2018 23:00:00 -0,4 -5,0 40 21 54 29 SE 1031,1 0
13.01.2018 22:00:00 -0,6 -4,9 43 23 - - SE 1031,2 0
13.01.2018 21:00:00 -0,1 -4,1 40 21 50 27 ESE 1031,3 0
13.01.2018 20:00:00 0,0 -4,8 40 21 50 27 SE 1031,2 0
13.01.2018 19:00:00 0,7 -3,1 40 21 - - ESE 1031,2 0
13.01.2018 18:00:00 0,8 -2,9 47 25 54 29 ESE 1031,1 0
13.01.2018 17:00:00 1,2 -2,2 43 23 50 27 ESE 1031,1 0
13.01.2018 16:00:00 1,5 -1,7 43 23 - - SE 1031,0 0
13.01.2018 15:00:00 1,6 -1,3 43 23 50 27 SE 1031,0 0
13.01.2018 14:00:00 1,4 -0,7 43 23 47 25 SE 1031,2 0
13.01.2018 13:00:00 1,4 -0,8 40 21 - - SE 1031,6 0
13.01.2018 12:00:00 1,4 -0,3 40 21 47 25 ESE 1031,8 0
13.01.2018 11:00:00 1,2 -0,1 36 19 47 25 SE 1031,9 0
13.01.2018 10:00:00 1,5 0,2 32 18 - - SE 1031,6 0
13.01.2018 09:00:00 1,3 0,1 40 21 47 25 SE 1031,3 0
13.01.2018 08:00:00 1,5 0,3 40 21 47 25 ESE 1031,0 0
13.01.2018 07:00:00 1,6 0,4 40 21 - - ESE 1031,1 0
13.01.2018 06:00:00 1,8 0,5 36 19 - - ESE 1031,1 0
13.01.2018 05:00:00 1,8 0,4 36 19 - - ESE 1031,2 0
13.01.2018 04:00:00 1,8 0,6 32 18 - - ESE 1031,5 0
13.01.2018 03:00:00 1,8 0,1 32 18 - - SE 1031,6 0
13.01.2018 02:00:00 1,9 0,1 29 16 - - SE 1031,5 0
13.01.2018 01:00:00 1,8 0,0 25 14 - - SE 1031,7 0
13.01.2018 00:00:00 2,4 0,3 36 19 47 25 ESE 1031,7 0
12.01.2018 23:00:00 2,4 -1,8 40 21 54 29 ESE 1031,4 0
12.01.2018 22:00:00 2,9 0,0 36 19 - - E 1031,3 0
12.01.2018 21:00:00 2,6 -0,3 29 16 - - ESE 1031,6 0
12.01.2018 20:00:00 2,8 -0,7 36 19 50 27 ESE 1031,5 0
12.01.2018 19:00:00 2,4 -0,1 36 19 - - E 1031,1 0
12.01.2018 18:00:00 2,9 -0,5 40 21 61 33 ESE 1030,9 0
12.01.2018 17:00:00 2,9 -0,9 54 29 61 33 E 1030,2 0
12.01.2018 16:00:00 2,7 -0,1 40 21 - - E 1030,4 0
12.01.2018 15:00:00 2,3 0,3 43 23 50 27 E 1030,2 0
12.01.2018 14:00:00 2,2 0,7 40 21 50 27 E 1029,7 0
12.01.2018 13:00:00 2,1 0,9 43 23 - - E 1029,8 0
12.01.2018 12:00:00 2,6 1,3 43 23 50 27 E 1029,7 0
12.01.2018 11:00:00 2,6 1,6 47 25 54 29 E 1029,3 0
12.01.2018 10:00:00 2,7 1,6 43 23 - - E 1028,6 0
12.01.2018 09:00:00 2,8 1,7 43 23 50 27 E 1028,2 0
12.01.2018 08:00:00 2,7 1,7 40 21 47 25 E 1027,4 0
12.01.2018 07:00:00 2,8 1,8 43 23 - - E 1026,8 0
12.01.2018 06:00:00 2,9 1,9 43 23 50 27 E 1026,4 0
12.01.2018 05:00:00 2,9 1,7 40 21 - - E 1025,8 0
12.01.2018 04:00:00 3,0 1,9 36 19 - - E 1025,6 0
12.01.2018 03:00:00 - - - - - - - - -
12.01.2018 02:00:00 2,9 2,0 32 18 - - E 1024,8 0
12.01.2018 01:00:00 3,3 1,7 36 19 - - E 1024,2 0
12.01.2018 00:00:00 3,5 1,6 36 19 - - E 1023,5 0
11.01.2018 23:00:00 3,7 2,2 36 19 - - ENE 1022,9 0
11.01.2018 22:00:00 3,8 2,5 36 19 - - ENE 1022,5 0
11.01.2018 21:00:00 4,0 2,6 36 19 - - NE 1021,8 0
11.01.2018 20:00:00 3,9 2,9 32 18 - - NE 1021,5 0
11.01.2018 19:00:00 3,9 3,0 25 14 - - NE 1021,1 0
11.01.2018 18:00:00 3,3 1,9 32 18 - - NE 1020,8 0
11.01.2018 17:00:00 3,8 2,8 29 16 - - NE 1020,3 0
11.01.2018 16:00:00 4,1 3,6 29 16 - - NE 1019,9 0
11.01.2018 15:00:00 4,2 3,8 25 14 - - NNE 1019,3 0
11.01.2018 14:00:00 4,1 3,8 22 12 - - N 1018,9 0
11.01.2018 13:00:00 3,9 3,6 18 10 - - NNE 1018,6 0
11.01.2018 12:00:00 3,6 3,6 18 10 - - NNE 1018,4 0
11.01.2018 11:00:00 3,4 3,1 14 8 - - NNE 1018,3 0
11.01.2018 10:00:00 3,6 3,6 18 10 - - ENE 1017,9 0
11.01.2018 09:00:00 3,3 3,0 14 8 - - E 1017,2 0
11.01.2018 08:00:00 3,1 2,8 14 8 - - E 1016,6 0
11.01.2018 07:00:00 2,8 2,8 22 12 - - E 1016,0 0
11.01.2018 06:00:00 2,7 2,7 22 12 - - E 1015,5 0
11.01.2018 05:00:00 3,3 2,8 22 12 - - E 1015,0 0
11.01.2018 04:00:00 3,4 2,9 18 10 - - E 1014,7 0
11.01.2018 03:00:00 3,4 2,9 14 8 - - ESE 1014,4 0
11.01.2018 02:00:00 2,8 2,8 11 6 - - SE 1014,4 0
11.01.2018 01:00:00 2,9 2,5 22 12 - - SE 1014,2 0
11.01.2018 00:00:00 2,7 2,7 25 14 - - ESE 1013,9 0
10.01.2018 23:00:00 2,5 2,3 29 16 - - E 1013,5 0
10.01.2018 22:00:00 2,7 2,7 22 12 - - E 1013,2 0
10.01.2018 21:00:00 3,1 2,5 22 12 - - E 1012,7 0
10.01.2018 20:00:00 3,8 2,9 22 12 - - ESE 1012,6 0

tt = Température de l'air
td = dewpoint
ff = Vitesse du vent
fx = gusts
dd = Direction du vent
ppp = reduced air pressure
sd = Ensoleillement

stations d'obs. à proximité